RYR9018 EGNT-EGPH
Flight info
| Callsign | RYR9018 |
|---|---|
| Flight time | 0h 36m |
| Altitude | 12000 |
| Route | AGPED |
| Aircraft | B738/M-SDE2E3FGHIRWXY/LB1 |
Departure
| Time | 2026-04-23 19:24 |
|---|---|
| Airport | Newcastle International Airport (EGNT) |
Arrival
| Time | 2026-04-23 20:00 |
|---|---|
| Airport | Edinburgh Airport (EGPH) |
| Time | Latitude | Longitude | Altitude | Speed | Heading |
|---|---|---|---|---|---|
| 2026-04-23 18:58 | 55.03734 | -1.70673 | 275 ft | 0 kts | 184° |
| 2026-04-23 19:15 | 55.03744 | -1.70672 | 275 ft | 2 kts | 184° |
| 2026-04-23 19:15 | 55.03761 | -1.70669 | 275 ft | 3 kts | 182° |
| 2026-04-23 19:16 | 55.03781 | -1.70675 | 275 ft | 3 kts | 159° |
| 2026-04-23 19:16 | 55.03798 | -1.70693 | 275 ft | 3 kts | 136° |
| 2026-04-23 19:16 | 55.03809 | -1.70722 | 275 ft | 3 kts | 111° |
| 2026-04-23 19:17 | 55.03813 | -1.70755 | 275 ft | 0 kts | 94° |
| 2026-04-23 19:17 | 55.03813 | -1.70749 | 275 ft | 2 kts | 94° |
| 2026-04-23 19:17 | 55.03809 | -1.70696 | 275 ft | 7 kts | 96° |
| 2026-04-23 19:18 | 55.03803 | -1.70592 | 275 ft | 11 kts | 94° |
| 2026-04-23 19:18 | 55.03788 | -1.70448 | 275 ft | 9 kts | 132° |
| 2026-04-23 19:18 | 55.03727 | -1.70434 | 275 ft | 11 kts | 184° |
| 2026-04-23 19:18 | 55.03637 | -1.70448 | 275 ft | 15 kts | 193° |
| 2026-04-23 19:19 | 55.03541 | -1.70645 | 275 ft | 9 kts | 181° |
| 2026-04-23 19:19 | 55.03521 | -1.70646 | 275 ft | 0 kts | 181° |
| 2026-04-23 19:20 | 55.03520 | -1.70646 | 275 ft | 2 kts | 181° |
| 2026-04-23 19:20 | 55.03474 | -1.70648 | 275 ft | 5 kts | 181° |
| 2026-04-23 19:20 | 55.03466 | -1.70648 | 275 ft | 0 kts | 181° |
| 2026-04-23 19:21 | 55.03441 | -1.70649 | 275 ft | 8 kts | 181° |
| 2026-04-23 19:22 | 55.03370 | -1.70635 | 275 ft | 6 kts | 130° |
| 2026-04-23 19:22 | 55.03375 | -1.70562 | 275 ft | 6 kts | 65° |
| 2026-04-23 19:22 | 55.03381 | -1.70539 | 275 ft | 0 kts | 65° |
| 2026-04-23 19:23 | 55.03385 | -1.70523 | 275 ft | 10 kts | 65° |
| 2026-04-23 19:23 | 55.03511 | -1.70049 | 275 ft | 78 kts | 65° |
| 2026-04-23 19:23 | 55.03831 | -1.68837 | 275 ft | 140 kts | 65° |
| 2026-04-23 19:24 | 55.04733 | -1.65390 | 1488 ft | 166 kts | 67° |
| 2026-04-23 19:24 | 55.05219 | -1.63507 | 2186 ft | 177 kts | 67° |
| 2026-04-23 19:24 | 55.06460 | -1.59411 | 3564 ft | 208 kts | 47° |
| 2026-04-23 19:25 | 55.09367 | -1.58179 | 4934 ft | 244 kts | 347° |
| 2026-04-23 19:25 | 55.12094 | -1.62149 | 6339 ft | 284 kts | 296° |
| 2026-04-23 19:26 | 55.12906 | -1.69363 | 7760 ft | 323 kts | 272° |
| 2026-04-23 19:26 | 55.12943 | -1.73351 | 8566 ft | 336 kts | 269° |
| 2026-04-23 19:27 | 55.12761 | -1.81730 | 10280 ft | 355 kts | 266° |
| 2026-04-23 19:27 | 55.13658 | -1.94777 | 12588 ft | 381 kts | 290° |
| 2026-04-23 19:28 | 55.15979 | -2.03714 | 12518 ft | 407 kts | 296° |
| 2026-04-23 19:28 | 55.18579 | -2.12205 | 12505 ft | 388 kts | 298° |
| 2026-04-23 19:29 | 55.19872 | -2.16266 | 12502 ft | 384 kts | 298° |
| 2026-04-23 19:29 | 55.22433 | -2.24401 | 12496 ft | 379 kts | 298° |
| 2026-04-23 19:30 | 55.24960 | -2.32502 | 12492 ft | 377 kts | 298° |
| 2026-04-23 19:30 | 55.26219 | -2.36550 | 12490 ft | 377 kts | 297° |
| 2026-04-23 19:30 | 55.28733 | -2.44645 | 12489 ft | 376 kts | 297° |
| 2026-04-23 19:31 | 55.29968 | -2.48629 | 12488 ft | 376 kts | 297° |
| 2026-04-23 19:31 | 55.31221 | -2.52671 | 12488 ft | 376 kts | 298° |
| 2026-04-23 19:31 | 55.32499 | -2.56727 | 12484 ft | 376 kts | 298° |
| 2026-04-23 19:31 | 55.33752 | -2.60699 | 12481 ft | 376 kts | 298° |
| 2026-04-23 19:32 | 55.35026 | -2.64738 | 12481 ft | 376 kts | 298° |
| 2026-04-23 19:32 | 55.36311 | -2.68781 | 12481 ft | 376 kts | 298° |
| 2026-04-23 19:32 | 55.37562 | -2.72773 | 12482 ft | 376 kts | 298° |
| 2026-04-23 19:32 | 55.38835 | -2.76814 | 12480 ft | 370 kts | 298° |
| 2026-04-23 19:33 | 55.40028 | -2.80582 | 12419 ft | 335 kts | 298° |
| 2026-04-23 19:33 | 55.41102 | -2.84013 | 12166 ft | 311 kts | 297° |
| 2026-04-23 19:33 | 55.43086 | -2.90260 | 11652 ft | 278 kts | 298° |
| 2026-04-23 19:34 | 55.44045 | -2.93175 | 11396 ft | 271 kts | 300° |
| 2026-04-23 19:34 | 55.45102 | -2.95925 | 11145 ft | 268 kts | 304° |
| 2026-04-23 19:34 | 55.47536 | -3.00816 | 10648 ft | 266 kts | 314° |
| 2026-04-23 19:35 | 55.48888 | -3.03067 | 10396 ft | 266 kts | 315° |
| 2026-04-23 19:35 | 55.50236 | -3.05249 | 10148 ft | 265 kts | 316° |
| 2026-04-23 19:35 | 55.51606 | -3.07445 | 9896 ft | 264 kts | 316° |
| 2026-04-23 19:35 | 55.52952 | -3.09601 | 9647 ft | 263 kts | 316° |
| 2026-04-23 19:36 | 55.54311 | -3.11783 | 9396 ft | 262 kts | 316° |
| 2026-04-23 19:36 | 55.55652 | -3.13939 | 9147 ft | 262 kts | 316° |
| 2026-04-23 19:36 | 55.57003 | -3.16113 | 8895 ft | 261 kts | 316° |
| 2026-04-23 19:36 | 55.58346 | -3.18276 | 8644 ft | 260 kts | 316° |
| 2026-04-23 19:37 | 55.59673 | -3.20414 | 8396 ft | 260 kts | 316° |
| 2026-04-23 19:37 | 55.61007 | -3.22565 | 8145 ft | 259 kts | 316° |
| 2026-04-23 19:37 | 55.62344 | -3.24723 | 7893 ft | 258 kts | 316° |
| 2026-04-23 19:37 | 55.63655 | -3.26838 | 7645 ft | 257 kts | 316° |
| 2026-04-23 19:38 | 55.64980 | -3.28980 | 7394 ft | 256 kts | 316° |
| 2026-04-23 19:38 | 55.66286 | -3.31092 | 7145 ft | 255 kts | 316° |
| 2026-04-23 19:38 | 55.67603 | -3.33222 | 6894 ft | 255 kts | 316° |
| 2026-04-23 19:38 | 55.68901 | -3.35321 | 6645 ft | 254 kts | 316° |
| 2026-04-23 19:39 | 55.70207 | -3.37427 | 6394 ft | 253 kts | 316° |
| 2026-04-23 19:39 | 55.71515 | -3.39530 | 6143 ft | 253 kts | 316° |
| 2026-04-23 19:39 | 55.72755 | -3.41704 | 5891 ft | 251 kts | 309° |
| 2026-04-23 19:39 | 55.73811 | -3.44157 | 5648 ft | 250 kts | 304° |
| 2026-04-23 19:40 | 55.74788 | -3.46711 | 5438 ft | 247 kts | 302° |
| 2026-04-23 19:40 | 55.75714 | -3.49232 | 5268 ft | 246 kts | 301° |
| 2026-04-23 19:40 | 55.76646 | -3.51808 | 5092 ft | 246 kts | 301° |
| 2026-04-23 19:40 | 55.77515 | -3.54427 | 4913 ft | 245 kts | 295° |
| 2026-04-23 19:41 | 55.78152 | -3.57206 | 4743 ft | 244 kts | 289° |
| 2026-04-23 19:41 | 55.78689 | -3.60032 | 4577 ft | 243 kts | 287° |
| 2026-04-23 19:41 | 55.79031 | -3.61942 | 4459 ft | 243 kts | 286° |
| 2026-04-23 19:41 | 55.79703 | -3.65779 | 4224 ft | 242 kts | 288° |
| 2026-04-23 19:42 | 55.80575 | -3.68314 | 4067 ft | 242 kts | 314° |
| 2026-04-23 19:42 | 55.81996 | -3.69815 | 4014 ft | 242 kts | 342° |
| 2026-04-23 19:42 | 55.83674 | -3.69978 | 4006 ft | 243 kts | 9° |
| 2026-04-23 19:42 | 55.85285 | -3.69130 | 4013 ft | 244 kts | 21° |
| 2026-04-23 19:43 | 55.86784 | -3.67729 | 3986 ft | 243 kts | 39° |
| 2026-04-23 19:43 | 55.87518 | -3.66237 | 3997 ft | 242 kts | 57° |
| 2026-04-23 19:43 | 55.88079 | -3.63404 | 3914 ft | 246 kts | 80° |
| 2026-04-23 19:43 | 55.88271 | -3.60441 | 3675 ft | 238 kts | 85° |
| 2026-04-23 19:44 | 55.88482 | -3.57621 | 3412 ft | 218 kts | 79° |
| 2026-04-23 19:44 | 55.88907 | -3.55171 | 3144 ft | 200 kts | 67° |
| 2026-04-23 19:44 | 55.89538 | -3.53063 | 2882 ft | 185 kts | 59° |
| 2026-04-23 19:44 | 55.90193 | -3.51209 | 2681 ft | 162 kts | 57° |
| 2026-04-23 19:45 | 55.90781 | -3.49598 | 2468 ft | 153 kts | 57° |
| 2026-04-23 19:45 | 55.91351 | -3.48010 | 2214 ft | 150 kts | 58° |
| 2026-04-23 19:45 | 55.91901 | -3.46431 | 2047 ft | 157 kts | 59° |
| 2026-04-23 19:45 | 55.92519 | -3.44622 | 2428 ft | 183 kts | 59° |
| 2026-04-23 19:46 | 55.93202 | -3.42605 | 2688 ft | 202 kts | 59° |
| 2026-04-23 19:46 | 55.93947 | -3.40391 | 2706 ft | 211 kts | 59° |
| 2026-04-23 19:46 | 55.94704 | -3.38144 | 2774 ft | 209 kts | 59° |
| 2026-04-23 19:46 | 55.95453 | -3.35917 | 2943 ft | 210 kts | 59° |
| 2026-04-23 19:47 | 55.96216 | -3.33647 | 2993 ft | 214 kts | 59° |
| 2026-04-23 19:47 | 55.96986 | -3.31352 | 2999 ft | 215 kts | 59° |
| 2026-04-23 19:47 | 55.97744 | -3.29092 | 3000 ft | 215 kts | 59° |
| 2026-04-23 19:47 | 55.98512 | -3.26798 | 3004 ft | 214 kts | 59° |
| 2026-04-23 19:48 | 55.99231 | -3.24550 | 3349 ft | 204 kts | 65° |
| 2026-04-23 19:48 | 55.99419 | -3.22072 | 3731 ft | 209 kts | 96° |
| 2026-04-23 19:48 | 55.98845 | -3.19629 | 3950 ft | 221 kts | 126° |
| 2026-04-23 19:48 | 55.97684 | -3.17772 | 4021 ft | 226 kts | 144° |
| 2026-04-23 19:49 | 55.96323 | -3.16364 | 3987 ft | 225 kts | 158° |
| 2026-04-23 19:49 | 55.94808 | -3.16134 | 3995 ft | 222 kts | 188° |
| 2026-04-23 19:49 | 55.93406 | -3.17308 | 4002 ft | 225 kts | 217° |
| 2026-04-23 19:49 | 55.92346 | -3.19375 | 4024 ft | 230 kts | 231° |
| 2026-04-23 19:50 | 55.91409 | -3.21708 | 4006 ft | 230 kts | 235° |
| 2026-04-23 19:50 | 55.90530 | -3.24048 | 4000 ft | 229 kts | 236° |
| 2026-04-23 19:50 | 55.89652 | -3.26430 | 3999 ft | 228 kts | 236° |
| 2026-04-23 19:50 | 55.88794 | -3.28766 | 3999 ft | 228 kts | 236° |
| 2026-04-23 19:51 | 55.87922 | -3.31142 | 3999 ft | 228 kts | 236° |
| 2026-04-23 19:51 | 55.87051 | -3.33514 | 3999 ft | 228 kts | 236° |
| 2026-04-23 19:51 | 55.86193 | -3.35852 | 3999 ft | 228 kts | 236° |
| 2026-04-23 19:51 | 55.85319 | -3.38229 | 3999 ft | 228 kts | 236° |
| 2026-04-23 19:52 | 55.84457 | -3.40573 | 3999 ft | 228 kts | 236° |
| 2026-04-23 19:52 | 55.83587 | -3.42939 | 3999 ft | 228 kts | 236° |
| 2026-04-23 19:52 | 55.82717 | -3.45303 | 4000 ft | 228 kts | 236° |
| 2026-04-23 19:52 | 55.81849 | -3.47659 | 3999 ft | 228 kts | 236° |
| 2026-04-23 19:53 | 55.80990 | -3.49989 | 3998 ft | 228 kts | 236° |
| 2026-04-23 19:53 | 55.80121 | -3.52347 | 3997 ft | 228 kts | 236° |
| 2026-04-23 19:53 | 55.79246 | -3.54707 | 3996 ft | 228 kts | 236° |
| 2026-04-23 19:53 | 55.78440 | -3.57107 | 3978 ft | 229 kts | 245° |
| 2026-04-23 19:54 | 55.78243 | -3.59908 | 3991 ft | 231 kts | 275° |
| 2026-04-23 19:54 | 55.78837 | -3.62550 | 3995 ft | 235 kts | 303° |
| 2026-04-23 19:54 | 55.79995 | -3.64600 | 4014 ft | 233 kts | 320° |
| 2026-04-23 19:54 | 55.81255 | -3.66257 | 3983 ft | 216 kts | 325° |
| 2026-04-23 19:55 | 55.82599 | -3.67139 | 3960 ft | 203 kts | 354° |
| 2026-04-23 19:55 | 55.83968 | -3.66645 | 3932 ft | 202 kts | 23° |
| 2026-04-23 19:55 | 55.85132 | -3.65257 | 3707 ft | 201 kts | 41° |
| 2026-04-23 19:55 | 55.86062 | -3.63461 | 3455 ft | 192 kts | 51° |
| 2026-04-23 19:56 | 55.86809 | -3.61575 | 3192 ft | 178 kts | 57° |
| 2026-04-23 19:56 | 55.87434 | -3.59778 | 2947 ft | 163 kts | 59° |
| 2026-04-23 19:56 | 55.87972 | -3.58148 | 2714 ft | 144 kts | 60° |
| 2026-04-23 19:56 | 55.88471 | -3.56630 | 2469 ft | 140 kts | 60° |
| 2026-04-23 19:57 | 55.88967 | -3.55141 | 2275 ft | 138 kts | 59° |
| 2026-04-23 19:57 | 55.89453 | -3.53701 | 2123 ft | 137 kts | 59° |
| 2026-04-23 19:57 | 55.89947 | -3.52241 | 1971 ft | 138 kts | 59° |
| 2026-04-23 19:57 | 55.90439 | -3.50789 | 1787 ft | 138 kts | 59° |
| 2026-04-23 19:58 | 55.90936 | -3.49318 | 1585 ft | 137 kts | 59° |
| 2026-04-23 19:58 | 55.91422 | -3.47878 | 1385 ft | 136 kts | 59° |
| 2026-04-23 19:58 | 55.91909 | -3.46437 | 1183 ft | 135 kts | 59° |
| 2026-04-23 19:58 | 55.92391 | -3.45007 | 1001 ft | 133 kts | 59° |
| 2026-04-23 19:59 | 55.92870 | -3.43585 | 824 ft | 133 kts | 59° |
| 2026-04-23 19:59 | 55.93340 | -3.42189 | 648 ft | 133 kts | 59° |
| 2026-04-23 19:59 | 55.93817 | -3.40773 | 446 ft | 133 kts | 59° |
| 2026-04-23 19:59 | 55.94295 | -3.39352 | 241 ft | 132 kts | 59° |
| 2026-04-23 20:00 | 55.94748 | -3.38007 | 144 ft | 120 kts | 59° |
| 2026-04-23 20:00 | 55.95065 | -3.37059 | 144 ft | 59 kts | 59° |
| 2026-04-23 20:00 | 55.95221 | -3.36598 | 144 ft | 33 kts | 59° |
| 2026-04-23 20:00 | 55.95250 | -3.36412 | 144 ft | 8 kts | 136° |
| 2026-04-23 20:01 | 55.95217 | -3.36373 | 144 ft | 4 kts | 149° |
| 2026-04-23 20:01 | 55.95192 | -3.36346 | 144 ft | 6 kts | 149° |
| 2026-04-23 20:01 | 55.95150 | -3.36308 | 144 ft | 7 kts | 174° |
| 2026-04-23 20:01 | 55.95105 | -3.36372 | 144 ft | 10 kts | 235° |
| 2026-04-23 20:02 | 55.95047 | -3.36383 | 144 ft | 8 kts | 178° |
| 2026-04-23 20:02 | 55.94996 | -3.36446 | 144 ft | 11 kts | 237° |
| 2026-04-23 20:02 | 55.94959 | -3.36556 | 144 ft | 9 kts | 239° |
| 2026-04-23 20:02 | 55.94921 | -3.36653 | 144 ft | 9 kts | 209° |
| 2026-04-23 20:03 | 55.94887 | -3.36633 | 144 ft | 6 kts | 149° |
| 2026-04-23 20:03 | 55.94858 | -3.36602 | 144 ft | 0 kts | 149° |